sensor_id;sensor_type;location;lat;lon;timestamp;temperature;humidity
43991;DHT22;29654;50.784;20.604;2023-03-31T00:04:44;16.10;52.40
43991;DHT22;29654;50.784;20.604;2023-03-31T00:09:52;16.10;52.40
43991;DHT22;29654;50.784;20.604;2023-03-31T00:14:57;16.10;52.60
43991;DHT22;29654;50.784;20.604;2023-03-31T00:20:01;16.20;52.70
43991;DHT22;29654;50.784;20.604;2023-03-31T00:25:07;16.10;52.70
43991;DHT22;29654;50.784;20.604;2023-03-31T00:30:12;16.10;52.80
43991;DHT22;29654;50.784;20.604;2023-03-31T00:35:16;16.20;52.70
43991;DHT22;29654;50.784;20.604;2023-03-31T00:40:19;16.20;52.80
43991;DHT22;29654;50.784;20.604;2023-03-31T00:45:29;16.20;52.70
43991;DHT22;29654;50.784;20.604;2023-03-31T00:50:35;16.20;53.30
43991;DHT22;29654;50.784;20.604;2023-03-31T00:55:44;16.20;53.00
43991;DHT22;29654;50.784;20.604;2023-03-31T01:00:50;16.10;52.90
43991;DHT22;29654;50.784;20.604;2023-03-31T01:05:56;16.10;52.70
43991;DHT22;29654;50.784;20.604;2023-03-31T01:11:04;16.10;53.10
43991;DHT22;29654;50.784;20.604;2023-03-31T01:16:08;16.00;52.90
43991;DHT22;29654;50.784;20.604;2023-03-31T01:21:31;16.00;53.00
43991;DHT22;29654;50.784;20.604;2023-03-31T01:26:55;16.00;54.00
43991;DHT22;29654;50.784;20.604;2023-03-31T01:37:54;16.00;53.60
43991;DHT22;29654;50.784;20.604;2023-03-31T01:43:25;16.00;53.90
43991;DHT22;29654;50.784;20.604;2023-03-31T01:48:39;16.00;53.40
43991;DHT22;29654;50.784;20.604;2023-03-31T01:53:49;16.00;53.80
43991;DHT22;29654;50.784;20.604;2023-03-31T01:58:59;16.00;53.70
43991;DHT22;29654;50.784;20.604;2023-03-31T02:04:08;16.00;53.70
43991;DHT22;29654;50.784;20.604;2023-03-31T02:09:18;16.00;53.50
43991;DHT22;29654;50.784;20.604;2023-03-31T02:14:26;16.00;53.40
43991;DHT22;29654;50.784;20.604;2023-03-31T02:19:32;16.00;53.60
43991;DHT22;29654;50.784;20.604;2023-03-31T02:24:42;16.00;53.40
43991;DHT22;29654;50.784;20.604;2023-03-31T02:29:47;16.00;53.50
43991;DHT22;29654;50.784;20.604;2023-03-31T02:34:50;16.00;53.60
43991;DHT22;29654;50.784;20.604;2023-03-31T02:39:55;16.00;53.40
43991;DHT22;29654;50.784;20.604;2023-03-31T02:45:02;15.90;53.60
43991;DHT22;29654;50.784;20.604;2023-03-31T02:50:08;16.00;53.90
43991;DHT22;29654;50.784;20.604;2023-03-31T02:55:25;15.90;53.50
43991;DHT22;29654;50.784;20.604;2023-03-31T03:00:55;15.90;54.00
43991;DHT22;29654;50.784;20.604;2023-03-31T03:06:17;15.90;54.20
43991;DHT22;29654;50.784;20.604;2023-03-31T03:11:43;15.90;54.20
43991;DHT22;29654;50.784;20.604;2023-03-31T03:16:53;15.80;54.00
43991;DHT22;29654;50.784;20.604;2023-03-31T03:21:59;15.80;53.90
43991;DHT22;29654;50.784;20.604;2023-03-31T03:27:02;15.80;53.40
43991;DHT22;29654;50.784;20.604;2023-03-31T03:32:07;15.70;53.30
43991;DHT22;29654;50.784;20.604;2023-03-31T03:37:10;15.70;53.60
43991;DHT22;29654;50.784;20.604;2023-03-31T03:42:12;15.60;53.60
43991;DHT22;29654;50.784;20.604;2023-03-31T03:47:16;15.60;53.80
43991;DHT22;29654;50.784;20.604;2023-03-31T03:52:19;15.60;54.00
43991;DHT22;29654;50.784;20.604;2023-03-31T03:57:21;15.70;54.00
43991;DHT22;29654;50.784;20.604;2023-03-31T04:02:25;15.60;54.00
43991;DHT22;29654;50.784;20.604;2023-03-31T04:07:29;15.60;53.90
43991;DHT22;29654;50.784;20.604;2023-03-31T04:12:33;15.60;54.00
43991;DHT22;29654;50.784;20.604;2023-03-31T04:17:37;15.60;54.10
43991;DHT22;29654;50.784;20.604;2023-03-31T04:22:40;15.60;54.10
43991;DHT22;29654;50.784;20.604;2023-03-31T04:27:43;15.60;54.00
43991;DHT22;29654;50.784;20.604;2023-03-31T04:32:54;15.60;54.00
43991;DHT22;29654;50.784;20.604;2023-03-31T04:37:57;15.60;54.10
43991;DHT22;29654;50.784;20.604;2023-03-31T04:42:59;15.60;53.90
43991;DHT22;29654;50.784;20.604;2023-03-31T04:48:04;15.60;54.00
43991;DHT22;29654;50.784;20.604;2023-03-31T04:53:07;15.60;54.10
43991;DHT22;29654;50.784;20.604;2023-03-31T04:58:09;15.60;54.20
43991;DHT22;29654;50.784;20.604;2023-03-31T05:03:13;15.60;54.10
43991;DHT22;29654;50.784;20.604;2023-03-31T05:08:16;15.60;54.10
43991;DHT22;29654;50.784;20.604;2023-03-31T05:13:18;15.60;54.00
43991;DHT22;29654;50.784;20.604;2023-03-31T05:18:23;15.60;54.00
43991;DHT22;29654;50.784;20.604;2023-03-31T05:23:25;15.70;54.20
43991;DHT22;29654;50.784;20.604;2023-03-31T05:28:28;15.70;54.20
43991;DHT22;29654;50.784;20.604;2023-03-31T05:33:32;15.70;54.20
43991;DHT22;29654;50.784;20.604;2023-03-31T05:38:40;15.70;54.40
43991;DHT22;29654;50.784;20.604;2023-03-31T05:43:44;15.80;54.20
43991;DHT22;29654;50.784;20.604;2023-03-31T05:48:48;15.90;54.30
43991;DHT22;29654;50.784;20.604;2023-03-31T05:53:50;15.90;54.20
43991;DHT22;29654;50.784;20.604;2023-03-31T05:58:53;16.00;54.10
43991;DHT22;29654;50.784;20.604;2023-03-31T06:03:57;16.00;54.00
43991;DHT22;29654;50.784;20.604;2023-03-31T06:09:00;16.10;54.00
43991;DHT22;29654;50.784;20.604;2023-03-31T06:14:02;16.10;54.00
43991;DHT22;29654;50.784;20.604;2023-03-31T06:19:07;16.10;54.00
43991;DHT22;29654;50.784;20.604;2023-03-31T06:24:09;16.20;54.20
43991;DHT22;29654;50.784;20.604;2023-03-31T06:29:12;16.30;54.20
43991;DHT22;29654;50.784;20.604;2023-03-31T06:34:16;16.40;54.20
43991;DHT22;29654;50.784;20.604;2023-03-31T06:39:18;16.40;54.20
43991;DHT22;29654;50.784;20.604;2023-03-31T06:44:21;16.60;54.20
43991;DHT22;29654;50.784;20.604;2023-03-31T06:49:25;16.70;54.10
43991;DHT22;29654;50.784;20.604;2023-03-31T06:54:28;16.90;54.10
43991;DHT22;29654;50.784;20.604;2023-03-31T06:59:31;17.00;54.00
43991;DHT22;29654;50.784;20.604;2023-03-31T07:04:34;17.10;53.80
43991;DHT22;29654;50.784;20.604;2023-03-31T07:09:37;17.20;53.60
43991;DHT22;29654;50.784;20.604;2023-03-31T07:14:40;17.30;53.40
43991;DHT22;29654;50.784;20.604;2023-03-31T07:19:44;17.40;53.20
43991;DHT22;29654;50.784;20.604;2023-03-31T07:24:47;17.40;53.10
43991;DHT22;29654;50.784;20.604;2023-03-31T07:29:50;17.50;53.00
43991;DHT22;29654;50.784;20.604;2023-03-31T07:34:54;17.60;53.00
43991;DHT22;29654;50.784;20.604;2023-03-31T07:39:56;17.70;52.90
43991;DHT22;29654;50.784;20.604;2023-03-31T07:44:59;17.70;52.80
43991;DHT22;29654;50.784;20.604;2023-03-31T07:50:04;17.80;52.80
43991;DHT22;29654;50.784;20.604;2023-03-31T07:55:08;17.90;52.80
43991;DHT22;29654;50.784;20.604;2023-03-31T08:00:11;18.00;52.70
43991;DHT22;29654;50.784;20.604;2023-03-31T08:05:18;18.10;52.50
43991;DHT22;29654;50.784;20.604;2023-03-31T08:10:23;18.20;52.50
43991;DHT22;29654;50.784;20.604;2023-03-31T08:15:28;18.20;52.40
43991;DHT22;29654;50.784;20.604;2023-03-31T08:20:32;18.30;52.40
43991;DHT22;29654;50.784;20.604;2023-03-31T08:25:34;18.40;52.20
43991;DHT22;29654;50.784;20.604;2023-03-31T08:30:37;18.60;52.20
43991;DHT22;29654;50.784;20.604;2023-03-31T08:35:41;18.70;52.10
43991;DHT22;29654;50.784;20.604;2023-03-31T08:40:44;18.90;52.10
43991;DHT22;29654;50.784;20.604;2023-03-31T08:45:47;19.10;52.00
43991;DHT22;29654;50.784;20.604;2023-03-31T08:50:55;19.20;51.80
43991;DHT22;29654;50.784;20.604;2023-03-31T08:56:04;19.50;51.60
43991;DHT22;29654;50.784;20.604;2023-03-31T09:01:17;19.70;51.40
43991;DHT22;29654;50.784;20.604;2023-03-31T09:06:31;19.90;51.00
43991;DHT22;29654;50.784;20.604;2023-03-31T09:11:42;20.00;50.70
43991;DHT22;29654;50.784;20.604;2023-03-31T09:16:52;20.20;50.70
43991;DHT22;29654;50.784;20.604;2023-03-31T09:21:59;20.40;50.70
43991;DHT22;29654;50.784;20.604;2023-03-31T09:27:05;20.60;50.50
43991;DHT22;29654;50.784;20.604;2023-03-31T09:32:14;20.80;50.10
43991;DHT22;29654;50.784;20.604;2023-03-31T09:37:19;21.00;49.70
43991;DHT22;29654;50.784;20.604;2023-03-31T09:42:21;21.10;49.50
43991;DHT22;29654;50.784;20.604;2023-03-31T09:47:30;21.30;49.20
43991;DHT22;29654;50.784;20.604;2023-03-31T09:52:38;21.40;48.30
43991;DHT22;29654;50.784;20.604;2023-03-31T09:57:42;21.60;48.10
43991;DHT22;29654;50.784;20.604;2023-03-31T10:02:48;21.60;48.30
43991;DHT22;29654;50.784;20.604;2023-03-31T10:07:53;21.80;47.70
43991;DHT22;29654;50.784;20.604;2023-03-31T10:13:18;21.90;47.80
43991;DHT22;29654;50.784;20.604;2023-03-31T10:18:32;21.90;47.20
43991;DHT22;29654;50.784;20.604;2023-03-31T10:23:37;22.00;46.80
43991;DHT22;29654;50.784;20.604;2023-03-31T10:28:39;22.10;47.10
43991;DHT22;29654;50.784;20.604;2023-03-31T10:33:44;22.10;46.70
43991;DHT22;29654;50.784;20.604;2023-03-31T10:38:50;22.10;45.90
43991;DHT22;29654;50.784;20.604;2023-03-31T10:43:54;22.00;45.80
43991;DHT22;29654;50.784;20.604;2023-03-31T10:48:58;21.90;46.20
43991;DHT22;29654;50.784;20.604;2023-03-31T10:54:03;21.90;46.10
43991;DHT22;29654;50.784;20.604;2023-03-31T10:59:25;21.90;46.00
43991;DHT22;29654;50.784;20.604;2023-03-31T11:04:51;22.00;45.40
43991;DHT22;29654;50.784;20.604;2023-03-31T11:10:24;22.00;45.30
43991;DHT22;29654;50.784;20.604;2023-03-31T11:15:39;22.10;45.30
43991;DHT22;29654;50.784;20.604;2023-03-31T11:20:53;22.20;45.60
43991;DHT22;29654;50.784;20.604;2023-03-31T11:26:05;22.40;45.10
43991;DHT22;29654;50.784;20.604;2023-03-31T11:31:31;22.30;44.70
43991;DHT22;29654;50.784;20.604;2023-03-31T11:36:49;22.30;44.20
43991;DHT22;29654;50.784;20.604;2023-03-31T11:42:01;22.20;44.40
43991;DHT22;29654;50.784;20.604;2023-03-31T11:47:08;22.20;44.90
43991;DHT22;29654;50.784;20.604;2023-03-31T11:52:15;22.30;45.00
43991;DHT22;29654;50.784;20.604;2023-03-31T11:57:24;22.40;44.80
43991;DHT22;29654;50.784;20.604;2023-03-31T12:02:38;22.40;43.90
43991;DHT22;29654;50.784;20.604;2023-03-31T12:07:49;22.50;44.30
43991;DHT22;29654;50.784;20.604;2023-03-31T12:13:01;22.60;44.40
43991;DHT22;29654;50.784;20.604;2023-03-31T12:18:13;22.70;43.70
43991;DHT22;29654;50.784;20.604;2023-03-31T12:23:20;22.70;43.80
43991;DHT22;29654;50.784;20.604;2023-03-31T12:28:26;22.70;43.70
43991;DHT22;29654;50.784;20.604;2023-03-31T12:33:35;22.80;43.60
43991;DHT22;29654;50.784;20.604;2023-03-31T12:38:49;22.70;43.40
43991;DHT22;29654;50.784;20.604;2023-03-31T12:44:27;22.80;43.20
43991;DHT22;29654;50.784;20.604;2023-03-31T12:49:51;22.80;42.60
43991;DHT22;29654;50.784;20.604;2023-03-31T12:55:34;22.80;42.70
43991;DHT22;29654;50.784;20.604;2023-03-31T13:01:04;22.70;42.50
43991;DHT22;29654;50.784;20.604;2023-03-31T13:06:09;22.70;42.60
43991;DHT22;29654;50.784;20.604;2023-03-31T13:11:13;22.60;42.80
43991;DHT22;29654;50.784;20.604;2023-03-31T13:16:20;22.40;42.80
43991;DHT22;29654;50.784;20.604;2023-03-31T13:21:22;22.40;42.70
43991;DHT22;29654;50.784;20.604;2023-03-31T13:26:39;22.30;42.80
43991;DHT22;29654;50.784;20.604;2023-03-31T13:32:06;22.30;42.60
43991;DHT22;29654;50.784;20.604;2023-03-31T13:37:44;22.40;42.70
43991;DHT22;29654;50.784;20.604;2023-03-31T13:43:24;22.50;42.70
43991;DHT22;29654;50.784;20.604;2023-03-31T13:48:47;22.60;42.40
43991;DHT22;29654;50.784;20.604;2023-03-31T14:05:38;22.70;42.00
43991;DHT22;29654;50.784;20.604;2023-03-31T14:10:43;22.70;42.30
43991;DHT22;29654;50.784;20.604;2023-03-31T14:15:48;22.60;42.70
43991;DHT22;29654;50.784;20.604;2023-03-31T14:21:06;22.60;42.70
43991;DHT22;29654;50.784;20.604;2023-03-31T14:26:29;22.60;42.30
43991;DHT22;29654;50.784;20.604;2023-03-31T14:31:44;22.60;42.10
43991;DHT22;29654;50.784;20.604;2023-03-31T14:36:57;22.50;42.30
43991;DHT22;29654;50.784;20.604;2023-03-31T14:42:03;22.40;42.40
43991;DHT22;29654;50.784;20.604;2023-03-31T14:47:13;22.40;42.70
43991;DHT22;29654;50.784;20.604;2023-03-31T14:52:18;22.40;42.60
43991;DHT22;29654;50.784;20.604;2023-03-31T14:57:27;22.30;42.60
43991;DHT22;29654;50.784;20.604;2023-03-31T15:02:33;22.30;42.50
43991;DHT22;29654;50.784;20.604;2023-03-31T15:07:40;22.20;42.50
43991;DHT22;29654;50.784;20.604;2023-03-31T15:12:42;22.10;42.30
43991;DHT22;29654;50.784;20.604;2023-03-31T15:17:46;22.00;42.40
43991;DHT22;29654;50.784;20.604;2023-03-31T15:22:50;22.00;42.20
43991;DHT22;29654;50.784;20.604;2023-03-31T15:27:55;21.90;42.10
43991;DHT22;29654;50.784;20.604;2023-03-31T15:33:01;21.80;42.10
43991;DHT22;29654;50.784;20.604;2023-03-31T15:38:11;21.70;42.30
43991;DHT22;29654;50.784;20.604;2023-03-31T15:43:26;21.70;42.30
43991;DHT22;29654;50.784;20.604;2023-03-31T15:48:31;21.50;42.50
43991;DHT22;29654;50.784;20.604;2023-03-31T15:53:42;21.30;43.40
43991;DHT22;29654;50.784;20.604;2023-03-31T15:58:52;21.00;44.20
43991;DHT22;29654;50.784;20.604;2023-03-31T16:03:56;20.70;44.40
43991;DHT22;29654;50.784;20.604;2023-03-31T16:09:02;20.50;44.70
43991;DHT22;29654;50.784;20.604;2023-03-31T16:14:12;20.20;45.30
43991;DHT22;29654;50.784;20.604;2023-03-31T16:19:18;20.00;45.60
43991;DHT22;29654;50.784;20.604;2023-03-31T16:24:29;19.80;45.80
43991;DHT22;29654;50.784;20.604;2023-03-31T16:29:34;19.70;46.50
43991;DHT22;29654;50.784;20.604;2023-03-31T16:34:52;19.50;46.10
43991;DHT22;29654;50.784;20.604;2023-03-31T16:39:57;19.40;47.10
43991;DHT22;29654;50.784;20.604;2023-03-31T16:45:00;19.30;46.60
43991;DHT22;29654;50.784;20.604;2023-03-31T16:50:03;19.20;46.60
43991;DHT22;29654;50.784;20.604;2023-03-31T16:55:08;19.00;46.80
43991;DHT22;29654;50.784;20.604;2023-03-31T17:00:12;18.90;47.00
43991;DHT22;29654;50.784;20.604;2023-03-31T17:05:15;18.90;47.10
43991;DHT22;29654;50.784;20.604;2023-03-31T17:10:19;18.80;47.10
43991;DHT22;29654;50.784;20.604;2023-03-31T17:15:22;18.70;47.40
43991;DHT22;29654;50.784;20.604;2023-03-31T17:20:25;18.70;47.50
43991;DHT22;29654;50.784;20.604;2023-03-31T17:25:29;18.60;47.60
43991;DHT22;29654;50.784;20.604;2023-03-31T17:30:34;18.50;47.70
43991;DHT22;29654;50.784;20.604;2023-03-31T17:35:38;18.40;48.10
43991;DHT22;29654;50.784;20.604;2023-03-31T17:40:42;18.30;48.10
43991;DHT22;29654;50.784;20.604;2023-03-31T17:45:45;18.20;48.50
43991;DHT22;29654;50.784;20.604;2023-03-31T17:50:48;18.10;48.50
43991;DHT22;29654;50.784;20.604;2023-03-31T17:55:53;18.00;48.70
43991;DHT22;29654;50.784;20.604;2023-03-31T18:00:55;17.90;49.10
43991;DHT22;29654;50.784;20.604;2023-03-31T18:06:02;17.90;49.00
43991;DHT22;29654;50.784;20.604;2023-03-31T18:11:07;17.80;50.10
43991;DHT22;29654;50.784;20.604;2023-03-31T18:16:10;17.70;49.60
43991;DHT22;29654;50.784;20.604;2023-03-31T18:21:13;17.70;49.60
43991;DHT22;29654;50.784;20.604;2023-03-31T18:26:18;17.60;49.70
43991;DHT22;29654;50.784;20.604;2023-03-31T18:31:21;17.60;50.00
43991;DHT22;29654;50.784;20.604;2023-03-31T18:36:26;17.60;49.90
43991;DHT22;29654;50.784;20.604;2023-03-31T18:41:30;17.60;50.00
43991;DHT22;29654;50.784;20.604;2023-03-31T18:46:33;17.60;50.20
43991;DHT22;29654;50.784;20.604;2023-03-31T18:51:35;17.50;50.10
43991;DHT22;29654;50.784;20.604;2023-03-31T18:56:39;17.50;50.30
43991;DHT22;29654;50.784;20.604;2023-03-31T19:01:42;17.40;50.50
43991;DHT22;29654;50.784;20.604;2023-03-31T19:06:45;17.40;50.60
43991;DHT22;29654;50.784;20.604;2023-03-31T19:11:49;17.30;50.60
43991;DHT22;29654;50.784;20.604;2023-03-31T19:16:52;17.30;51.00
43991;DHT22;29654;50.784;20.604;2023-03-31T19:21:55;17.20;50.70
43991;DHT22;29654;50.784;20.604;2023-03-31T19:26:59;17.10;50.80
43991;DHT22;29654;50.784;20.604;2023-03-31T19:32:03;17.00;51.30
43991;DHT22;29654;50.784;20.604;2023-03-31T19:37:05;17.00;51.30
43991;DHT22;29654;50.784;20.604;2023-03-31T19:42:10;17.10;51.40
43991;DHT22;29654;50.784;20.604;2023-03-31T19:47:14;17.10;51.50
43991;DHT22;29654;50.784;20.604;2023-03-31T19:52:17;17.10;51.40
43991;DHT22;29654;50.784;20.604;2023-03-31T19:57:21;17.20;51.40
43991;DHT22;29654;50.784;20.604;2023-03-31T20:02:24;17.30;51.70
43991;DHT22;29654;50.784;20.604;2023-03-31T20:07:28;17.30;51.50
43991;DHT22;29654;50.784;20.604;2023-03-31T20:12:32;17.20;51.40
43991;DHT22;29654;50.784;20.604;2023-03-31T20:17:34;17.30;51.40
43991;DHT22;29654;50.784;20.604;2023-03-31T20:22:38;17.20;51.20
43991;DHT22;29654;50.784;20.604;2023-03-31T20:27:42;17.10;51.20
43991;DHT22;29654;50.784;20.604;2023-03-31T20:32:45;17.10;51.40
43991;DHT22;29654;50.784;20.604;2023-03-31T20:37:48;17.00;51.40
43991;DHT22;29654;50.784;20.604;2023-03-31T20:42:51;16.90;51.50
43991;DHT22;29654;50.784;20.604;2023-03-31T20:47:55;16.90;51.70
43991;DHT22;29654;50.784;20.604;2023-03-31T20:52:58;16.90;51.70
43991;DHT22;29654;50.784;20.604;2023-03-31T20:58:02;16.80;51.90
43991;DHT22;29654;50.784;20.604;2023-03-31T21:03:04;16.80;52.00
43991;DHT22;29654;50.784;20.604;2023-03-31T21:08:07;16.70;51.90
43991;DHT22;29654;50.784;20.604;2023-03-31T21:13:13;16.70;52.10
43991;DHT22;29654;50.784;20.604;2023-03-31T21:18:16;16.60;52.20
43991;DHT22;29654;50.784;20.604;2023-03-31T21:23:19;16.60;52.10
43991;DHT22;29654;50.784;20.604;2023-03-31T21:28:25;16.50;52.40
43991;DHT22;29654;50.784;20.604;2023-03-31T21:33:30;16.50;52.60
43991;DHT22;29654;50.784;20.604;2023-03-31T21:38:34;16.50;52.40
43991;DHT22;29654;50.784;20.604;2023-03-31T21:43:38;16.40;52.50
43991;DHT22;29654;50.784;20.604;2023-03-31T21:48:41;16.40;52.70
43991;DHT22;29654;50.784;20.604;2023-03-31T21:53:44;16.40;52.80
43991;DHT22;29654;50.784;20.604;2023-03-31T21:58:48;16.40;52.80
43991;DHT22;29654;50.784;20.604;2023-03-31T22:03:52;16.40;53.00
43991;DHT22;29654;50.784;20.604;2023-03-31T22:08:54;16.40;52.80
43991;DHT22;29654;50.784;20.604;2023-03-31T22:13:58;16.40;52.80
43991;DHT22;29654;50.784;20.604;2023-03-31T22:19:01;16.40;53.50
43991;DHT22;29654;50.784;20.604;2023-03-31T22:24:13;16.40;52.80
43991;DHT22;29654;50.784;20.604;2023-03-31T22:29:17;16.40;52.80
43991;DHT22;29654;50.784;20.604;2023-03-31T22:34:20;16.40;53.10
43991;DHT22;29654;50.784;20.604;2023-03-31T22:39:23;16.30;53.10
43991;DHT22;29654;50.784;20.604;2023-03-31T22:44:27;16.30;53.20
43991;DHT22;29654;50.784;20.604;2023-03-31T22:49:30;16.40;53.30
43991;DHT22;29654;50.784;20.604;2023-03-31T22:54:33;16.30;53.20
43991;DHT22;29654;50.784;20.604;2023-03-31T22:59:37;16.30;53.20
43991;DHT22;29654;50.784;20.604;2023-03-31T23:04:40;16.40;53.40
43991;DHT22;29654;50.784;20.604;2023-03-31T23:09:42;16.40;53.10
43991;DHT22;29654;50.784;20.604;2023-03-31T23:14:46;16.30;53.00
43991;DHT22;29654;50.784;20.604;2023-03-31T23:19:49;16.30;53.40
43991;DHT22;29654;50.784;20.604;2023-03-31T23:24:52;16.20;53.50
43991;DHT22;29654;50.784;20.604;2023-03-31T23:29:56;16.20;53.70
43991;DHT22;29654;50.784;20.604;2023-03-31T23:34:59;16.20;53.80
43991;DHT22;29654;50.784;20.604;2023-03-31T23:40:01;16.20;53.70
43991;DHT22;29654;50.784;20.604;2023-03-31T23:45:07;16.30;53.80
43991;DHT22;29654;50.784;20.604;2023-03-31T23:50:10;16.30;53.90
43991;DHT22;29654;50.784;20.604;2023-03-31T23:55:12;16.30;53.70
